Аэропорт: Хабаровск-Новый. Хабаровск

ICAO: UHHH

METAR:
2021-07-28 14:30:00
UHHH 281430Z VRB01MPS CAVOK 27/22 Q1000 R23R/090060 NOSIG RMK QFE744/0992
METAR:
2021-07-28 10:46:00
TAF UHHH 281046Z 2812/2918 VRB01MPS CAVOK FM282100 25003MPS 9999 SCT020CB TEMPO 2900/2909 27006MPS 3100 -TSRA SCT011 BKN020CB